METAR Data
IDs: Format: Raw Decoded Include TAF

Data at: 2209 UTC 01 Dec 2021

ZGSZ 012200Z 04004MPS CAVOK 13/M00 Q1023 NOSIG